sensor_id;sensor_type;location;lat;lon;timestamp;pressure;altitude;pressure_sealevel;temperature;humidity
72560;BME280;62987;52.382;9.752;2023-07-16T00:00:27;100202.84;;;20.84;100.00
72560;BME280;62987;52.382;9.752;2023-07-16T00:02:56;100195.19;;;20.80;100.00
72560;BME280;62987;52.382;9.752;2023-07-16T00:05:24;100172.69;;;20.69;100.00
72560;BME280;62987;52.382;9.752;2023-07-16T00:07:52;100191.22;;;20.74;100.00
72560;BME280;62987;52.382;9.752;2023-07-16T00:10:22;100201.72;;;20.67;100.00
72560;BME280;62987;52.382;9.752;2023-07-16T00:12:50;100202.28;;;20.71;100.00
72560;BME280;62987;52.382;9.752;2023-07-16T00:15:18;100202.25;;;20.61;100.00
72560;BME280;62987;52.382;9.752;2023-07-16T00:17:46;100203.28;;;20.60;100.00
72560;BME280;62987;52.382;9.752;2023-07-16T00:20:14;100186.91;;;20.52;100.00
72560;BME280;62987;52.382;9.752;2023-07-16T00:22:42;100168.44;;;20.48;100.00
72560;BME280;62987;52.382;9.752;2023-07-16T00:25:10;100151.34;;;20.47;100.00
72560;BME280;62987;52.382;9.752;2023-07-16T00:27:39;100136.28;;;20.35;100.00
72560;BME280;62987;52.382;9.752;2023-07-16T00:30:08;100165.00;;;20.46;100.00
72560;BME280;62987;52.382;9.752;2023-07-16T00:32:37;100159.31;;;20.39;100.00
72560;BME280;62987;52.382;9.752;2023-07-16T00:35:05;100156.75;;;20.38;100.00
72560;BME280;62987;52.382;9.752;2023-07-16T00:37:34;100139.66;;;20.37;100.00
72560;BME280;62987;52.382;9.752;2023-07-16T00:40:02;100097.25;;;20.18;100.00
72560;BME280;62987;52.382;9.752;2023-07-16T00:42:31;100110.25;;;20.34;100.00
72560;BME280;62987;52.382;9.752;2023-07-16T00:45:00;100114.59;;;20.16;100.00
72560;BME280;62987;52.382;9.752;2023-07-16T00:47:28;100184.28;;;20.31;100.00
72560;BME280;62987;52.382;9.752;2023-07-16T00:49:57;100176.94;;;20.03;100.00
72560;BME280;62987;52.382;9.752;2023-07-16T00:52:25;100201.41;;;20.02;100.00
72560;BME280;62987;52.382;9.752;2023-07-16T00:54:55;100193.16;;;20.03;100.00
72560;BME280;62987;52.382;9.752;2023-07-16T00:57:23;100187.06;;;20.01;100.00
72560;BME280;62987;52.382;9.752;2023-07-16T00:59:52;100191.00;;;19.97;100.00
72560;BME280;62987;52.382;9.752;2023-07-16T01:02:21;100098.13;;;19.29;100.00
72560;BME280;62987;52.382;9.752;2023-07-16T01:04:49;100158.75;;;19.55;100.00
72560;BME280;62987;52.382;9.752;2023-07-16T01:07:18;100234.19;;;19.97;100.00
72560;BME280;62987;52.382;9.752;2023-07-16T01:09:49;100225.78;;;19.90;100.00
72560;BME280;62987;52.382;9.752;2023-07-16T01:12:20;100231.50;;;19.97;100.00
72560;BME280;62987;52.382;9.752;2023-07-16T01:14:50;100206.19;;;19.88;100.00
72560;BME280;62987;52.382;9.752;2023-07-16T01:17:19;100221.13;;;19.92;100.00
72560;BME280;62987;52.382;9.752;2023-07-16T01:19:48;100215.84;;;19.91;100.00
72560;BME280;62987;52.382;9.752;2023-07-16T01:22:27;100200.38;;;19.93;100.00
72560;BME280;62987;52.382;9.752;2023-07-16T01:25:19;100200.94;;;19.87;100.00
72560;BME280;62987;52.382;9.752;2023-07-16T01:28:03;100222.97;;;19.92;100.00
72560;BME280;62987;52.382;9.752;2023-07-16T01:30:36;100241.13;;;19.90;100.00
72560;BME280;62987;52.382;9.752;2023-07-16T01:33:07;100257.06;;;19.93;100.00
72560;BME280;62987;52.382;9.752;2023-07-16T01:35:37;100231.41;;;19.78;100.00
72560;BME280;62987;52.382;9.752;2023-07-16T01:38:08;100237.69;;;19.78;100.00
72560;BME280;62987;52.382;9.752;2023-07-16T01:40:36;100247.25;;;19.92;100.00
72560;BME280;62987;52.382;9.752;2023-07-16T01:43:04;100213.38;;;19.78;100.00
72560;BME280;62987;52.382;9.752;2023-07-16T01:45:32;100234.50;;;19.94;100.00
72560;BME280;62987;52.382;9.752;2023-07-16T01:48:07;100212.69;;;19.76;100.00
72560;BME280;62987;52.382;9.752;2023-07-16T01:50:40;100228.50;;;19.90;100.00
72560;BME280;62987;52.382;9.752;2023-07-16T01:53:09;100216.28;;;19.86;100.00
72560;BME280;62987;52.382;9.752;2023-07-16T01:55:37;100192.94;;;19.76;100.00
72560;BME280;62987;52.382;9.752;2023-07-16T01:58:05;100228.91;;;19.86;100.00
72560;BME280;62987;52.382;9.752;2023-07-16T02:00:33;100213.53;;;19.77;100.00
72560;BME280;62987;52.382;9.752;2023-07-16T02:03:03;100226.50;;;19.83;100.00
72560;BME280;62987;52.382;9.752;2023-07-16T02:05:31;100213.25;;;19.80;100.00
72560;BME280;62987;52.382;9.752;2023-07-16T02:07:59;100192.75;;;19.68;100.00
72560;BME280;62987;52.382;9.752;2023-07-16T02:10:32;100194.72;;;19.66;100.00
72560;BME280;62987;52.382;9.752;2023-07-16T02:13:00;100213.53;;;19.77;100.00
72560;BME280;62987;52.382;9.752;2023-07-16T02:15:28;100208.16;;;19.77;100.00
72560;BME280;62987;52.382;9.752;2023-07-16T02:17:57;100211.66;;;19.77;100.00
72560;BME280;62987;52.382;9.752;2023-07-16T02:20:26;100218.94;;;19.77;100.00
72560;BME280;62987;52.382;9.752;2023-07-16T02:22:54;100227.75;;;19.79;100.00
72560;BME280;62987;52.382;9.752;2023-07-16T02:25:22;100217.34;;;19.74;100.00
72560;BME280;62987;52.382;9.752;2023-07-16T02:27:50;100237.56;;;19.80;100.00
72560;BME280;62987;52.382;9.752;2023-07-16T02:30:18;100165.09;;;19.24;100.00
72560;BME280;62987;52.382;9.752;2023-07-16T02:32:46;100249.75;;;19.74;100.00
72560;BME280;62987;52.382;9.752;2023-07-16T02:35:15;100195.56;;;19.45;100.00
72560;BME280;62987;52.382;9.752;2023-07-16T02:37:44;100227.22;;;19.64;100.00
72560;BME280;62987;52.382;9.752;2023-07-16T02:40:12;100243.41;;;19.64;100.00
72560;BME280;62987;52.382;9.752;2023-07-16T02:42:41;100249.84;;;19.63;100.00
72560;BME280;62987;52.382;9.752;2023-07-16T02:45:09;100246.84;;;19.66;100.00
72560;BME280;62987;52.382;9.752;2023-07-16T02:47:37;100235.19;;;19.66;100.00
72560;BME280;62987;52.382;9.752;2023-07-16T02:50:06;100222.66;;;19.55;100.00
72560;BME280;62987;52.382;9.752;2023-07-16T02:52:34;100240.03;;;19.62;100.00
72560;BME280;62987;52.382;9.752;2023-07-16T02:55:05;100242.97;;;19.59;100.00
72560;BME280;62987;52.382;9.752;2023-07-16T02:57:33;100229.56;;;19.48;100.00
72560;BME280;62987;52.382;9.752;2023-07-16T03:00:01;100249.97;;;19.62;100.00
72560;BME280;62987;52.382;9.752;2023-07-16T03:02:29;100252.78;;;19.60;100.00
72560;BME280;62987;52.382;9.752;2023-07-16T03:04:57;100226.31;;;19.33;100.00
72560;BME280;62987;52.382;9.752;2023-07-16T03:07:25;100257.28;;;19.50;100.00
72560;BME280;62987;52.382;9.752;2023-07-16T03:09:53;100260.84;;;19.50;100.00
72560;BME280;62987;52.382;9.752;2023-07-16T03:12:23;100271.09;;;19.45;100.00
72560;BME280;62987;52.382;9.752;2023-07-16T03:14:51;100273.22;;;19.42;100.00
72560;BME280;62987;52.382;9.752;2023-07-16T03:17:21;100258.69;;;19.33;100.00
72560;BME280;62987;52.382;9.752;2023-07-16T03:19:49;100271.63;;;19.39;100.00
72560;BME280;62987;52.382;9.752;2023-07-16T03:22:17;100257.69;;;19.34;100.00
72560;BME280;62987;52.382;9.752;2023-07-16T03:24:45;100251.38;;;19.24;100.00
72560;BME280;62987;52.382;9.752;2023-07-16T03:27:13;100258.78;;;19.32;100.00
72560;BME280;62987;52.382;9.752;2023-07-16T03:29:50;100271.19;;;19.34;100.00
72560;BME280;62987;52.382;9.752;2023-07-16T03:32:18;100270.38;;;19.23;100.00
72560;BME280;62987;52.382;9.752;2023-07-16T03:34:46;100253.94;;;19.05;100.00
72560;BME280;62987;52.382;9.752;2023-07-16T03:37:14;100281.28;;;19.21;100.00
72560;BME280;62987;52.382;9.752;2023-07-16T03:39:42;100280.09;;;19.14;100.00
72560;BME280;62987;52.382;9.752;2023-07-16T03:42:10;100302.88;;;19.21;100.00
72560;BME280;62987;52.382;9.752;2023-07-16T03:44:38;100291.28;;;19.09;100.00
72560;BME280;62987;52.382;9.752;2023-07-16T03:47:08;100304.66;;;19.11;100.00
72560;BME280;62987;52.382;9.752;2023-07-16T03:49:36;100307.19;;;19.12;100.00
72560;BME280;62987;52.382;9.752;2023-07-16T03:52:05;100299.78;;;19.05;100.00
72560;BME280;62987;52.382;9.752;2023-07-16T03:54:33;100300.75;;;19.04;100.00
72560;BME280;62987;52.382;9.752;2023-07-16T03:57:01;100300.28;;;18.99;100.00
72560;BME280;62987;52.382;9.752;2023-07-16T03:59:32;100307.97;;;19.03;100.00
72560;BME280;62987;52.382;9.752;2023-07-16T04:02:00;100312.22;;;19.06;100.00
72560;BME280;62987;52.382;9.752;2023-07-16T04:04:29;100299.06;;;18.92;100.00
72560;BME280;62987;52.382;9.752;2023-07-16T04:06:57;100285.88;;;18.77;100.00
72560;BME280;62987;52.382;9.752;2023-07-16T04:09:25;100328.06;;;18.99;100.00
72560;BME280;62987;52.382;9.752;2023-07-16T04:11:53;100340.31;;;19.03;100.00
72560;BME280;62987;52.382;9.752;2023-07-16T04:14:21;100330.06;;;18.97;100.00
72560;BME280;62987;52.382;9.752;2023-07-16T04:16:50;100328.34;;;18.96;100.00
72560;BME280;62987;52.382;9.752;2023-07-16T04:19:18;100342.28;;;19.01;100.00
72560;BME280;62987;52.382;9.752;2023-07-16T04:21:47;100328.56;;;18.93;100.00
72560;BME280;62987;52.382;9.752;2023-07-16T04:24:15;100342.28;;;19.01;100.00
72560;BME280;62987;52.382;9.752;2023-07-16T04:26:43;100341.41;;;19.01;100.00
72560;BME280;62987;52.382;9.752;2023-07-16T04:29:11;100346.94;;;19.10;100.00
72560;BME280;62987;52.382;9.752;2023-07-16T04:31:39;100362.06;;;19.23;100.00
72560;BME280;62987;52.382;9.752;2023-07-16T04:34:07;100342.13;;;19.14;100.00
72560;BME280;62987;52.382;9.752;2023-07-16T04:36:35;100366.31;;;19.36;100.00
72560;BME280;62987;52.382;9.752;2023-07-16T04:39:05;100366.03;;;19.39;100.00
72560;BME280;62987;52.382;9.752;2023-07-16T04:41:33;100381.88;;;19.44;100.00
72560;BME280;62987;52.382;9.752;2023-07-16T04:44:01;100375.63;;;19.43;100.00
72560;BME280;62987;52.382;9.752;2023-07-16T04:46:29;100361.91;;;19.35;100.00
72560;BME280;62987;52.382;9.752;2023-07-16T04:48:58;100393.75;;;19.52;100.00
72560;BME280;62987;52.382;9.752;2023-07-16T04:51:26;100396.78;;;19.59;100.00
72560;BME280;62987;52.382;9.752;2023-07-16T04:53:54;100394.81;;;19.61;100.00
72560;BME280;62987;52.382;9.752;2023-07-16T04:56:23;100399.59;;;19.58;100.00
72560;BME280;62987;52.382;9.752;2023-07-16T04:58:51;100396.19;;;19.55;100.00
72560;BME280;62987;52.382;9.752;2023-07-16T05:01:20;100383.91;;;19.63;100.00
72560;BME280;62987;52.382;9.752;2023-07-16T05:03:48;100396.81;;;19.80;100.00
72560;BME280;62987;52.382;9.752;2023-07-16T05:06:16;100409.34;;;20.02;100.00
72560;BME280;62987;52.382;9.752;2023-07-16T05:08:44;100397.34;;;19.94;100.00
72560;BME280;62987;52.382;9.752;2023-07-16T05:11:14;100387.66;;;19.92;100.00
72560;BME280;62987;52.382;9.752;2023-07-16T05:13:43;100399.50;;;20.01;100.00
72560;BME280;62987;52.382;9.752;2023-07-16T05:16:11;100412.47;;;20.07;100.00
72560;BME280;62987;52.382;9.752;2023-07-16T05:18:40;100403.06;;;20.01;100.00
72560;BME280;62987;52.382;9.752;2023-07-16T05:21:08;100385.69;;;19.94;100.00
72560;BME280;62987;52.382;9.752;2023-07-16T05:23:36;100410.03;;;20.24;100.00
72560;BME280;62987;52.382;9.752;2023-07-16T05:26:04;100408.13;;;20.36;100.00
72560;BME280;62987;52.382;9.752;2023-07-16T05:28:32;100418.41;;;20.42;100.00
72560;BME280;62987;52.382;9.752;2023-07-16T05:31:02;100397.59;;;20.33;100.00
72560;BME280;62987;52.382;9.752;2023-07-16T05:33:30;100425.28;;;20.56;100.00
72560;BME280;62987;52.382;9.752;2023-07-16T05:35:58;100424.13;;;20.49;100.00
72560;BME280;62987;52.382;9.752;2023-07-16T05:38:26;100430.91;;;20.43;100.00
72560;BME280;62987;52.382;9.752;2023-07-16T05:41:00;100438.88;;;20.35;100.00
72560;BME280;62987;52.382;9.752;2023-07-16T05:43:28;100407.94;;;20.07;100.00
72560;BME280;62987;52.382;9.752;2023-07-16T05:45:56;100408.34;;;20.03;100.00
72560;BME280;62987;52.382;9.752;2023-07-16T05:48:26;100434.56;;;20.32;100.00
72560;BME280;62987;52.382;9.752;2023-07-16T05:50:54;100449.72;;;20.45;100.00
72560;BME280;62987;52.382;9.752;2023-07-16T05:53:22;100424.59;;;20.54;100.00
72560;BME280;62987;52.382;9.752;2023-07-16T05:55:50;100431.31;;;20.59;100.00
72560;BME280;62987;52.382;9.752;2023-07-16T05:58:18;100432.59;;;20.65;100.00
72560;BME280;62987;52.382;9.752;2023-07-16T06:00:46;100444.53;;;20.93;100.00
72560;BME280;62987;52.382;9.752;2023-07-16T06:03:14;100437.91;;;20.76;100.00
72560;BME280;62987;52.382;9.752;2023-07-16T06:05:45;100430.22;;;20.81;100.00
72560;BME280;62987;52.382;9.752;2023-07-16T06:08:13;100435.38;;;20.84;100.00
72560;BME280;62987;52.382;9.752;2023-07-16T06:10:41;100453.63;;;20.92;100.00
72560;BME280;62987;52.382;9.752;2023-07-16T06:13:09;100430.84;;;20.94;100.00
72560;BME280;62987;52.382;9.752;2023-07-16T06:15:37;100456.19;;;21.24;100.00
72560;BME280;62987;52.382;9.752;2023-07-16T06:18:05;100455.19;;;21.34;100.00
72560;BME280;62987;52.382;9.752;2023-07-16T06:20:33;100462.91;;;21.39;100.00
72560;BME280;62987;52.382;9.752;2023-07-16T06:23:02;100441.13;;;21.50;100.00
72560;BME280;62987;52.382;9.752;2023-07-16T06:25:30;100461.22;;;21.67;100.00
72560;BME280;62987;52.382;9.752;2023-07-16T06:27:58;100464.94;;;21.85;100.00
72560;BME280;62987;52.382;9.752;2023-07-16T06:30:26;100473.78;;;21.58;100.00
72560;BME280;62987;52.382;9.752;2023-07-16T06:32:54;100448.63;;;21.18;100.00
72560;BME280;62987;52.382;9.752;2023-07-16T06:35:22;100466.88;;;21.35;100.00
72560;BME280;62987;52.382;9.752;2023-07-16T06:37:50;100475.91;;;21.14;100.00
72560;BME280;62987;52.382;9.752;2023-07-16T06:40:20;100433.41;;;20.86;100.00
72560;BME280;62987;52.382;9.752;2023-07-16T06:42:48;100470.88;;;21.31;100.00
72560;BME280;62987;52.382;9.752;2023-07-16T06:45:17;100478.59;;;21.54;100.00
72560;BME280;62987;52.382;9.752;2023-07-16T06:47:45;100488.69;;;21.43;100.00
72560;BME280;62987;52.382;9.752;2023-07-16T06:50:13;100474.91;;;21.56;100.00
72560;BME280;62987;52.382;9.752;2023-07-16T06:52:41;100483.59;;;21.59;100.00
72560;BME280;62987;52.382;9.752;2023-07-16T06:55:09;100486.59;;;21.85;100.00
72560;BME280;62987;52.382;9.752;2023-07-16T06:57:38;100476.97;;;22.02;100.00
72560;BME280;62987;52.382;9.752;2023-07-16T07:00:07;100483.91;;;21.94;100.00
72560;BME280;62987;52.382;9.752;2023-07-16T07:02:38;100490.31;;;21.93;100.00
72560;BME280;62987;52.382;9.752;2023-07-16T07:05:06;100463.06;;;21.47;100.00
72560;BME280;62987;52.382;9.752;2023-07-16T07:07:34;100491.16;;;21.84;100.00
72560;BME280;62987;52.382;9.752;2023-07-16T07:10:03;100486.56;;;22.52;100.00
72560;BME280;62987;52.382;9.752;2023-07-16T07:12:31;100499.34;;;22.89;100.00
72560;BME280;62987;52.382;9.752;2023-07-16T07:15:06;100473.41;;;22.77;100.00
72560;BME280;62987;52.382;9.752;2023-07-16T07:17:35;100503.75;;;22.90;100.00
72560;BME280;62987;52.382;9.752;2023-07-16T07:20:04;100490.44;;;23.06;100.00
72560;BME280;62987;52.382;9.752;2023-07-16T07:22:32;100494.66;;;22.71;100.00
72560;BME280;62987;52.382;9.752;2023-07-16T07:25:00;100519.88;;;22.16;100.00
72560;BME280;62987;52.382;9.752;2023-07-16T07:27:29;100500.00;;;21.67;100.00
72560;BME280;62987;52.382;9.752;2023-07-16T07:29:56;100512.81;;;21.65;100.00
72560;BME280;62987;52.382;9.752;2023-07-16T07:32:26;100509.28;;;21.93;100.00
72560;BME280;62987;52.382;9.752;2023-07-16T07:34:54;100517.88;;;22.27;100.00
72560;BME280;62987;52.382;9.752;2023-07-16T07:37:22;100511.16;;;22.41;100.00
72560;BME280;62987;52.382;9.752;2023-07-16T07:39:52;100519.38;;;22.49;100.00
72560;BME280;62987;52.382;9.752;2023-07-16T07:42:20;100518.13;;;22.53;100.00
72560;BME280;62987;52.382;9.752;2023-07-16T07:44:51;100524.78;;;22.88;100.00
72560;BME280;62987;52.382;9.752;2023-07-16T07:47:21;100498.34;;;22.90;96.57
72560;BME280;62987;52.382;9.752;2023-07-16T07:49:53;100521.88;;;22.89;100.00
72560;BME280;62987;52.382;9.752;2023-07-16T07:52:21;100519.03;;;22.91;96.35
72560;BME280;62987;52.382;9.752;2023-07-16T07:54:49;100513.53;;;23.10;98.34
72560;BME280;62987;52.382;9.752;2023-07-16T07:57:17;100525.72;;;23.33;96.01
72560;BME280;62987;52.382;9.752;2023-07-16T07:59:45;100530.25;;;23.70;92.47
72560;BME280;62987;52.382;9.752;2023-07-16T08:02:14;100536.06;;;23.75;93.28
72560;BME280;62987;52.382;9.752;2023-07-16T08:04:42;100541.53;;;24.10;81.65
72560;BME280;62987;52.382;9.752;2023-07-16T08:07:11;100541.84;;;24.07;78.97
72560;BME280;62987;52.382;9.752;2023-07-16T08:09:39;100537.13;;;24.09;77.64
72560;BME280;62987;52.382;9.752;2023-07-16T08:12:17;100560.75;;;25.14;70.84
72560;BME280;62987;52.382;9.752;2023-07-16T08:14:45;100556.34;;;25.97;62.87
72560;BME280;62987;52.382;9.752;2023-07-16T08:17:13;100554.44;;;24.87;71.79
72560;BME280;62987;52.382;9.752;2023-07-16T08:19:42;100559.25;;;24.50;71.54
72560;BME280;62987;52.382;9.752;2023-07-16T08:22:11;100565.13;;;23.92;75.72
72560;BME280;62987;52.382;9.752;2023-07-16T08:24:39;100561.66;;;24.53;72.79
72560;BME280;62987;52.382;9.752;2023-07-16T08:27:07;100549.66;;;23.92;76.41
72560;BME280;62987;52.382;9.752;2023-07-16T08:29:45;100543.34;;;23.57;80.24
72560;BME280;62987;52.382;9.752;2023-07-16T08:32:13;100543.69;;;23.89;79.40
72560;BME280;62987;52.382;9.752;2023-07-16T08:34:41;100562.75;;;24.42;77.41
72560;BME280;62987;52.382;9.752;2023-07-16T08:37:14;100572.63;;;24.43;75.95
72560;BME280;62987;52.382;9.752;2023-07-16T08:39:42;100573.97;;;23.94;80.87
72560;BME280;62987;52.382;9.752;2023-07-16T08:42:10;100567.06;;;24.00;81.18
72560;BME280;62987;52.382;9.752;2023-07-16T08:44:39;100579.22;;;24.58;76.26
72560;BME280;62987;52.382;9.752;2023-07-16T08:47:07;100569.09;;;25.46;66.30
72560;BME280;62987;52.382;9.752;2023-07-16T08:49:36;100530.66;;;24.46;69.17
72560;BME280;62987;52.382;9.752;2023-07-16T08:52:06;100546.09;;;23.92;72.05
72560;BME280;62987;52.382;9.752;2023-07-16T08:54:36;100560.66;;;23.19;79.75
72560;BME280;62987;52.382;9.752;2023-07-16T08:57:05;100558.16;;;24.07;74.99
72560;BME280;62987;52.382;9.752;2023-07-16T08:59:33;100555.41;;;23.72;76.92
72560;BME280;62987;52.382;9.752;2023-07-16T09:02:02;100558.91;;;23.55;76.73
72560;BME280;62987;52.382;9.752;2023-07-16T09:04:31;100538.94;;;23.19;77.60
72560;BME280;62987;52.382;9.752;2023-07-16T09:07:00;100568.47;;;23.22;76.00
72560;BME280;62987;52.382;9.752;2023-07-16T09:09:28;100562.75;;;22.88;79.75
72560;BME280;62987;52.382;9.752;2023-07-16T09:11:58;100564.97;;;23.11;80.93
72560;BME280;62987;52.382;9.752;2023-07-16T09:14:26;100559.47;;;23.21;81.34
72560;BME280;62987;52.382;9.752;2023-07-16T09:16:54;100565.84;;;23.02;81.54
72560;BME280;62987;52.382;9.752;2023-07-16T09:19:22;100555.97;;;23.48;80.66
72560;BME280;62987;52.382;9.752;2023-07-16T09:21:51;100555.59;;;23.33;79.41
72560;BME280;62987;52.382;9.752;2023-07-16T09:24:19;100559.53;;;23.76;80.10
72560;BME280;62987;52.382;9.752;2023-07-16T09:26:48;100568.28;;;23.70;80.18
72560;BME280;62987;52.382;9.752;2023-07-16T09:29:18;100541.84;;;23.72;78.00
72560;BME280;62987;52.382;9.752;2023-07-16T09:31:54;100550.00;;;23.89;78.41
72560;BME280;62987;52.382;9.752;2023-07-16T09:34:22;100573.97;;;24.21;74.34
72560;BME280;62987;52.382;9.752;2023-07-16T09:36:50;100572.41;;;24.37;74.35
72560;BME280;62987;52.382;9.752;2023-07-16T09:39:18;100566.31;;;24.07;77.30
72560;BME280;62987;52.382;9.752;2023-07-16T09:41:47;100566.38;;;24.51;76.99
72560;BME280;62987;52.382;9.752;2023-07-16T09:44:15;100559.50;;;24.56;71.74
72560;BME280;62987;52.382;9.752;2023-07-16T09:46:46;100570.00;;;24.95;71.00
72560;BME280;62987;52.382;9.752;2023-07-16T09:49:15;100583.31;;;24.80;74.31
72560;BME280;62987;52.382;9.752;2023-07-16T09:51:44;100573.25;;;24.55;72.69
72560;BME280;62987;52.382;9.752;2023-07-16T09:54:13;100580.09;;;24.23;71.40
72560;BME280;62987;52.382;9.752;2023-07-16T09:56:47;100586.19;;;24.08;74.17
72560;BME280;62987;52.382;9.752;2023-07-16T09:59:20;100551.50;;;23.74;75.51
72560;BME280;62987;52.382;9.752;2023-07-16T10:01:50;100571.78;;;23.80;74.22
72560;BME280;62987;52.382;9.752;2023-07-16T10:04:20;100582.34;;;23.83;76.23
72560;BME280;62987;52.382;9.752;2023-07-16T10:06:53;100586.78;;;23.57;79.04
72560;BME280;62987;52.382;9.752;2023-07-16T10:09:39;100576.53;;;23.41;79.86
72560;BME280;62987;52.382;9.752;2023-07-16T10:12:14;100582.75;;;24.06;78.62
72560;BME280;62987;52.382;9.752;2023-07-16T10:14:44;100574.44;;;23.72;81.42
72560;BME280;62987;52.382;9.752;2023-07-16T10:17:14;100587.59;;;23.67;81.24
72560;BME280;62987;52.382;9.752;2023-07-16T10:19:50;100573.94;;;23.59;81.65
72560;BME280;62987;52.382;9.752;2023-07-16T10:22:18;100586.69;;;23.76;81.23
72560;BME280;62987;52.382;9.752;2023-07-16T10:24:56;100565.84;;;23.67;77.51
72560;BME280;62987;52.382;9.752;2023-07-16T10:27:29;100562.13;;;23.68;77.60
72560;BME280;62987;52.382;9.752;2023-07-16T10:29:58;100568.44;;;23.68;77.22
72560;BME280;62987;52.382;9.752;2023-07-16T10:32:28;100582.97;;;24.40;73.91
72560;BME280;62987;52.382;9.752;2023-07-16T10:34:57;100587.28;;;25.12;69.71
72560;BME280;62987;52.382;9.752;2023-07-16T10:37:25;100584.16;;;25.58;66.00
72560;BME280;62987;52.382;9.752;2023-07-16T10:39:55;100596.97;;;25.66;66.91
72560;BME280;62987;52.382;9.752;2023-07-16T10:42:24;100576.09;;;25.57;64.45
72560;BME280;62987;52.382;9.752;2023-07-16T10:44:54;100586.69;;;25.26;65.36
72560;BME280;62987;52.382;9.752;2023-07-16T10:47:23;100583.97;;;25.26;66.86
72560;BME280;62987;52.382;9.752;2023-07-16T10:49:53;100589.63;;;25.06;65.23
72560;BME280;62987;52.382;9.752;2023-07-16T10:52:22;100600.06;;;25.45;62.77
72560;BME280;62987;52.382;9.752;2023-07-16T10:54:51;100545.88;;;25.34;57.99
72560;BME280;62987;52.382;9.752;2023-07-16T10:57:21;100596.22;;;25.98;56.23
72560;BME280;62987;52.382;9.752;2023-07-16T10:59:51;100587.22;;;26.05;55.97
72560;BME280;62987;52.382;9.752;2023-07-16T11:02:20;100614.31;;;26.15;55.58
72560;BME280;62987;52.382;9.752;2023-07-16T11:04:50;100596.41;;;26.20;55.56
72560;BME280;62987;52.382;9.752;2023-07-16T11:07:21;100603.84;;;26.44;55.39
72560;BME280;62987;52.382;9.752;2023-07-16T11:09:52;100582.66;;;26.30;53.51
72560;BME280;62987;52.382;9.752;2023-07-16T11:12:22;100600.25;;;26.60;50.17
72560;BME280;62987;52.382;9.752;2023-07-16T11:14:53;100584.56;;;26.62;49.67
72560;BME280;62987;52.382;9.752;2023-07-16T11:17:22;100570.19;;;27.09;47.68
72560;BME280;62987;52.382;9.752;2023-07-16T11:19:53;100549.84;;;27.19;43.69
72560;BME280;62987;52.382;9.752;2023-07-16T11:22:26;100587.69;;;27.55;43.56
72560;BME280;62987;52.382;9.752;2023-07-16T11:24:55;100593.78;;;27.65;41.20
72560;BME280;62987;52.382;9.752;2023-07-16T11:27:25;100548.03;;;26.79;45.18
72560;BME280;62987;52.382;9.752;2023-07-16T11:29:54;100569.69;;;26.97;43.85
72560;BME280;62987;52.382;9.752;2023-07-16T11:32:27;100591.31;;;28.17;40.67
72560;BME280;62987;52.382;9.752;2023-07-16T11:34:56;100591.03;;;28.27;41.59
72560;BME280;62987;52.382;9.752;2023-07-16T11:37:27;100576.19;;;28.67;38.80
72560;BME280;62987;52.382;9.752;2023-07-16T11:39:56;100585.03;;;29.29;38.15
72560;BME280;62987;52.382;9.752;2023-07-16T11:42:28;100548.63;;;29.06;35.51
72560;BME280;62987;52.382;9.752;2023-07-16T11:44:56;100591.84;;;29.62;35.90
72560;BME280;62987;52.382;9.752;2023-07-16T11:47:24;100592.59;;;30.22;33.85
72560;BME280;62987;52.382;9.752;2023-07-16T11:49:53;100595.88;;;29.96;34.60
72560;BME280;62987;52.382;9.752;2023-07-16T11:52:23;100596.31;;;28.74;35.88
72560;BME280;62987;52.382;9.752;2023-07-16T11:54:53;100588.59;;;29.15;36.12
72560;BME280;62987;52.382;9.752;2023-07-16T11:57:23;100577.84;;;29.57;35.12
72560;BME280;62987;52.382;9.752;2023-07-16T11:59:51;100573.13;;;29.22;35.81
72560;BME280;62987;52.382;9.752;2023-07-16T12:02:19;100578.72;;;30.66;33.43
72560;BME280;62987;52.382;9.752;2023-07-16T12:04:48;100582.94;;;30.68;32.92
72560;BME280;62987;52.382;9.752;2023-07-16T12:07:31;100590.28;;;30.04;34.89
72560;BME280;62987;52.382;9.752;2023-07-16T12:10:02;100569.00;;;30.27;32.91
72560;BME280;62987;52.382;9.752;2023-07-16T12:12:31;100588.88;;;28.90;34.00
72560;BME280;62987;52.382;9.752;2023-07-16T12:14:59;100604.66;;;29.18;35.13
72560;BME280;62987;52.382;9.752;2023-07-16T12:17:28;100598.75;;;29.58;34.39
72560;BME280;62987;52.382;9.752;2023-07-16T12:19:56;100597.00;;;30.37;32.62
72560;BME280;62987;52.382;9.752;2023-07-16T12:22:24;100596.53;;;31.25;31.81
72560;BME280;62987;52.382;9.752;2023-07-16T12:24:52;100591.81;;;31.88;30.90
72560;BME280;62987;52.382;9.752;2023-07-16T12:27:22;100598.06;;;32.17;30.72
72560;BME280;62987;52.382;9.752;2023-07-16T12:29:50;100586.03;;;32.24;28.95
72560;BME280;62987;52.382;9.752;2023-07-16T12:32:19;100598.34;;;32.48;28.37
72560;BME280;62987;52.382;9.752;2023-07-16T12:34:47;100594.19;;;32.91;27.92
72560;BME280;62987;52.382;9.752;2023-07-16T12:37:15;100596.28;;;33.03;27.52
72560;BME280;62987;52.382;9.752;2023-07-16T12:39:44;100608.41;;;30.55;31.00
72560;BME280;62987;52.382;9.752;2023-07-16T12:42:11;100600.56;;;28.84;34.62
72560;BME280;62987;52.382;9.752;2023-07-16T12:44:41;100607.47;;;30.70;31.26
72560;BME280;62987;52.382;9.752;2023-07-16T12:47:09;100603.81;;;31.74;30.57
72560;BME280;62987;52.382;9.752;2023-07-16T12:49:37;100594.34;;;32.50;29.12
72560;BME280;62987;52.382;9.752;2023-07-16T12:52:06;100603.72;;;31.26;30.50